createdAt,value
2018-11-28T00:01:03.044Z,27.10
2018-11-28T00:03:30.211Z,33.67
2018-11-28T00:05:57.461Z,30.40
2018-11-28T00:08:24.650Z,29.67
2018-11-28T00:10:51.804Z,34.23
2018-11-28T00:13:18.969Z,30.67
2018-11-28T00:15:46.176Z,31.57
2018-11-28T00:18:13.352Z,29.80
2018-11-28T00:20:40.539Z,29.60
2018-11-28T00:23:07.704Z,27.30
2018-11-28T00:25:34.890Z,29.83
2018-11-28T00:28:02.321Z,28.10
2018-11-28T00:30:29.544Z,28.87
2018-11-28T00:32:56.782Z,23.30
2018-11-28T00:35:24.425Z,30.17
2018-11-28T00:37:51.608Z,26.23
2018-11-28T00:40:19.629Z,24.73
2018-11-28T00:42:46.881Z,31.30
2018-11-28T00:45:14.361Z,28.17
2018-11-28T00:47:41.541Z,28.70
2018-11-28T00:50:10.361Z,36.23
2018-11-28T00:52:37.525Z,36.37
2018-11-28T00:55:05.101Z,37.50
2018-11-28T00:57:32.276Z,42.13
2018-11-28T00:59:59.440Z,38.43
2018-11-28T01:02:26.612Z,44.80
2018-11-28T01:04:53.796Z,43.73
2018-11-28T01:07:20.957Z,39.17
2018-11-28T01:09:48.160Z,46.67
2018-11-28T01:12:15.340Z,49.00
2018-11-28T01:14:42.657Z,51.40
2018-11-28T01:17:09.863Z,55.93
2018-11-28T01:19:37.037Z,52.43
2018-11-28T01:22:04.336Z,57.93
2018-11-28T01:24:31.533Z,46.27
2018-11-28T01:26:58.689Z,48.23
2018-11-28T01:29:25.891Z,54.20
2018-11-28T01:31:53.212Z,61.33
2018-11-28T01:34:20.457Z,50.20
2018-11-28T01:36:47.765Z,55.40
2018-11-28T01:39:15.000Z,53.70
2018-11-28T01:41:42.185Z,47.27
2018-11-28T01:44:09.369Z,49.13
2018-11-28T01:46:36.561Z,49.03
2018-11-28T01:49:03.720Z,50.30
2018-11-28T01:51:30.913Z,52.13
2018-11-28T01:53:58.100Z,52.07
2018-11-28T01:56:25.334Z,50.93
2018-11-28T01:58:52.516Z,48.93
2018-11-28T02:01:19.733Z,48.23
2018-11-28T02:03:46.897Z,53.17
2018-11-28T02:06:14.168Z,49.63
2018-11-28T02:08:41.426Z,56.47
2018-11-28T02:11:08.591Z,51.77
2018-11-28T02:13:35.772Z,59.67
2018-11-28T02:16:02.947Z,52.40
2018-11-28T02:18:30.130Z,51.10
2018-11-28T02:20:57.333Z,45.37
2018-11-28T02:23:24.497Z,47.20
2018-11-28T02:25:51.709Z,51.33
2018-11-28T02:28:18.856Z,52.20
2018-11-28T02:30:46.072Z,51.97
2018-11-28T02:33:13.297Z,48.90
2018-11-28T02:35:40.529Z,50.03
2018-11-28T02:38:07.946Z,44.47
2018-11-28T02:40:35.316Z,49.70
2018-11-28T02:43:02.589Z,42.83
2018-11-28T02:45:29.777Z,47.07
2018-11-28T02:47:56.940Z,41.50
2018-11-28T02:50:24.135Z,45.87
2018-11-28T02:52:51.310Z,49.33
2018-11-28T02:55:18.536Z,49.50
2018-11-28T02:57:47.133Z,48.17
2018-11-28T03:00:14.870Z,52.87
2018-11-28T03:02:42.030Z,46.83
2018-11-28T03:05:09.854Z,43.33
2018-11-28T03:07:37.053Z,48.07
2018-11-28T03:10:04.947Z,54.33
2018-11-28T03:12:32.161Z,49.67
2018-11-28T03:14:59.362Z,47.97
2018-11-28T03:17:26.540Z,55.50
2018-11-28T03:19:53.910Z,39.87
2018-11-28T03:22:21.089Z,45.47
2018-11-28T03:24:48.246Z,51.40
2018-11-28T03:27:15.446Z,55.87
2018-11-28T03:29:42.630Z,50.43
2018-11-28T03:32:09.853Z,50.57
2018-11-28T03:34:37.022Z,56.67
2018-11-28T03:37:04.231Z,54.47
2018-11-28T03:39:31.398Z,53.47
2018-11-28T03:41:58.573Z,52.97
2018-11-28T03:44:25.740Z,53.70
2018-11-28T03:46:52.918Z,54.97
2018-11-28T03:49:20.088Z,52.43
2018-11-28T03:51:47.260Z,57.87
2018-11-28T03:54:14.421Z,52.63
2018-11-28T03:56:41.637Z,44.80
2018-11-28T03:59:08.810Z,49.07
2018-11-28T04:01:35.995Z,49.33
2018-11-28T04:04:03.185Z,57.00
2018-11-28T04:06:30.376Z,47.23
2018-11-28T04:08:57.534Z,58.00
2018-11-28T04:11:24.693Z,49.70
2018-11-28T04:13:51.881Z,49.37
2018-11-28T04:16:19.109Z,45.93
2018-11-28T04:18:46.261Z,50.47
2018-11-28T04:21:13.449Z,47.20
2018-11-28T04:23:40.643Z,49.73
2018-11-28T04:26:07.813Z,44.77
2018-11-28T04:28:35.005Z,48.17
2018-11-28T04:31:03.035Z,44.83
2018-11-28T04:33:30.204Z,45.90
2018-11-28T04:35:57.423Z,42.63
2018-11-28T04:38:24.613Z,51.77
2018-11-28T04:40:51.849Z,47.80
2018-11-28T04:43:19.012Z,48.30
2018-11-28T04:45:46.230Z,49.17
2018-11-28T04:48:13.409Z,52.23
2018-11-28T04:50:40.565Z,49.13
2018-11-28T04:53:07.954Z,43.80
2018-11-28T04:55:35.146Z,43.27
2018-11-28T04:58:02.925Z,43.53
2018-11-28T05:00:30.105Z,46.43
2018-11-28T05:02:57.649Z,50.33
2018-11-28T05:05:24.932Z,45.00
2018-11-28T05:07:52.785Z,41.53
2018-11-28T05:10:22.305Z,50.87
2018-11-28T05:12:49.890Z,43.57
2018-11-28T05:15:17.613Z,42.67
2018-11-28T05:17:46.213Z,45.90
2018-11-28T05:20:14.266Z,43.83
2018-11-28T05:22:41.455Z,41.53
2018-11-28T05:25:10.612Z,48.00
2018-11-28T05:27:37.785Z,47.27
2018-11-28T05:30:06.393Z,40.73
2018-11-28T05:32:33.576Z,45.27
2018-11-28T05:35:02.249Z,41.60
2018-11-28T05:37:29.433Z,45.20
2018-11-28T05:39:56.616Z,38.60
2018-11-28T05:42:23.780Z,46.70
2018-11-28T05:44:50.968Z,40.03
2018-11-28T05:47:18.150Z,45.90
2018-11-28T05:49:45.317Z,42.37
2018-11-28T05:52:12.492Z,43.23
2018-11-28T05:54:39.652Z,36.53
2018-11-28T05:57:06.831Z,42.30
2018-11-28T05:59:33.990Z,40.00
2018-11-28T06:02:03.880Z,39.50
2018-11-28T06:04:31.065Z,42.77
2018-11-28T06:06:58.225Z,38.90
2018-11-28T06:09:25.457Z,40.80
2018-11-28T06:11:52.616Z,43.07
2018-11-28T06:14:19.792Z,45.10
2018-11-28T06:16:46.984Z,44.00
2018-11-28T06:19:14.172Z,41.63
2018-11-28T06:21:41.342Z,42.40
2018-11-28T06:24:08.524Z,41.33
2018-11-28T06:26:35.693Z,39.50
2018-11-28T06:29:02.897Z,47.50
2018-11-28T06:31:30.064Z,45.17
2018-11-28T06:33:57.215Z,43.63
2018-11-28T06:36:24.390Z,42.37
2018-11-28T06:38:51.544Z,44.30
2018-11-28T06:41:18.733Z,38.90
2018-11-28T06:43:45.917Z,43.87
2018-11-28T06:46:13.116Z,45.73
2018-11-28T06:48:40.301Z,36.30
2018-11-28T06:51:07.540Z,35.40
2018-11-28T06:53:34.699Z,36.83
2018-11-28T06:56:02.302Z,39.50
2018-11-28T06:58:29.485Z,38.70
2018-11-28T07:00:56.672Z,41.17
2018-11-28T07:03:23.851Z,42.07
2018-11-28T07:05:51.053Z,39.77
2018-11-28T07:08:19.129Z,36.57
2018-11-28T07:10:46.922Z,41.80
2018-11-28T07:13:14.128Z,38.83
2018-11-28T07:15:41.323Z,39.77
2018-11-28T07:18:14.292Z,42.27
2018-11-28T07:20:41.486Z,38.90
2018-11-28T07:23:08.680Z,32.50
2018-11-28T07:25:35.850Z,38.80
2018-11-28T07:28:03.065Z,36.30
2018-11-28T07:30:30.242Z,39.00
2018-11-28T07:32:57.593Z,37.53
2018-11-28T07:35:24.807Z,34.48
2018-11-28T07:37:52.029Z,39.33
2018-11-28T07:40:26.072Z,34.67
2018-11-28T07:43:13.626Z,40.63
2018-11-28T07:45:41.564Z,36.10
2018-11-28T07:48:08.744Z,36.93
2018-11-28T07:50:36.091Z,31.60
2018-11-28T07:53:03.266Z,37.23
2018-11-28T07:55:30.473Z,35.50
2018-11-28T07:57:57.665Z,36.80
2018-11-28T08:00:24.865Z,38.30
2018-11-28T08:02:52.085Z,30.70
2018-11-28T08:05:19.300Z,39.50
2018-11-28T08:07:46.512Z,36.73
2018-11-28T08:10:19.954Z,38.27
2018-11-28T08:12:47.297Z,35.07
2018-11-28T08:15:14.513Z,35.80
2018-11-28T08:17:42.199Z,36.40
2018-11-28T08:20:09.369Z,33.10
2018-11-28T08:22:36.586Z,32.30
2018-11-28T08:25:05.879Z,31.47
2018-11-28T08:27:32.847Z,35.20
2018-11-28T08:30:00.065Z,34.40
2018-11-28T08:32:27.241Z,35.10
2018-11-28T08:34:54.472Z,37.00
2018-11-28T08:37:21.751Z,35.70
2018-11-28T08:39:48.958Z,35.40
2018-11-28T08:42:16.157Z,35.23
2018-11-28T08:44:43.519Z,35.93
2018-11-28T08:47:10.691Z,42.20
2018-11-28T08:49:37.889Z,41.03
2018-11-28T08:52:05.060Z,39.73
2018-11-28T08:54:32.259Z,45.13
2018-11-28T08:56:59.503Z,39.30
2018-11-28T08:59:26.654Z,42.10
2018-11-28T09:01:53.824Z,46.73
2018-11-28T09:04:21.017Z,41.10
2018-11-28T09:06:48.187Z,44.20
2018-11-28T09:09:15.437Z,39.20
2018-11-28T09:11:42.600Z,44.37
2018-11-28T09:14:09.776Z,45.83
2018-11-28T09:16:36.974Z,44.70
2018-11-28T09:19:04.373Z,43.33
2018-11-28T09:21:31.565Z,41.63
2018-11-28T09:23:58.734Z,52.17
2018-11-28T09:26:25.934Z,44.57
2018-11-28T09:28:53.109Z,49.57
2018-11-28T09:31:20.348Z,44.10
2018-11-28T09:33:47.528Z,49.07
2018-11-28T09:36:14.701Z,43.10
2018-11-28T09:38:41.896Z,48.63
2018-11-28T09:41:09.062Z,55.23
2018-11-28T09:43:36.250Z,55.97
2018-11-28T09:46:03.424Z,72.40
2018-11-28T09:48:30.622Z,67.67
2018-11-28T09:50:57.810Z,45.63
2018-11-28T09:53:24.976Z,48.10
2018-11-28T09:55:52.192Z,65.77
2018-11-28T09:58:19.363Z,66.90
2018-11-28T10:00:46.574Z,54.57
2018-11-28T10:03:13.753Z,49.10
2018-11-28T10:05:40.933Z,49.33
2018-11-28T10:08:08.130Z,50.43
2018-11-28T10:10:35.298Z,47.53
2018-11-28T10:13:03.261Z,46.00
2018-11-28T10:15:35.491Z,50.97
2018-11-28T10:17:57.645Z,50.03
2018-11-28T10:20:24.848Z,42.27
2018-11-28T10:22:52.355Z,42.03
2018-11-28T10:25:22.045Z,45.60
2018-11-28T10:27:50.811Z,43.73
2018-11-28T10:30:18.677Z,38.20
2018-11-28T10:32:46.024Z,41.57
2018-11-28T10:35:13.241Z,43.20
2018-11-28T10:37:40.409Z,40.90
2018-11-28T10:40:16.753Z,34.50
2018-11-28T10:42:44.054Z,40.27
2018-11-28T10:45:11.858Z,41.67
2018-11-28T10:47:39.055Z,32.57
2018-11-28T10:50:07.289Z,38.70
2018-11-28T10:52:34.530Z,35.60
2018-11-28T10:55:02.100Z,34.20
2018-11-28T10:57:29.268Z,42.23
2018-11-28T10:59:56.486Z,38.90
2018-11-28T11:02:29.024Z,36.40
2018-11-28T11:05:01.656Z,34.10
2018-11-28T11:07:34.263Z,36.20
2018-11-28T11:10:07.030Z,43.40
2018-11-28T11:12:39.696Z,38.00
2018-11-28T11:15:06.917Z,41.37
2018-11-28T11:17:34.173Z,35.07
2018-11-28T11:20:01.374Z,36.10
2018-11-28T11:22:28.575Z,37.33
2018-11-28T11:24:55.769Z,37.60
2018-11-28T11:27:22.969Z,40.17
2018-11-28T11:29:50.156Z,38.67
2018-11-28T11:32:17.375Z,32.30
2018-11-28T11:34:44.572Z,33.13
2018-11-28T11:37:11.781Z,32.37
2018-11-28T11:39:38.948Z,35.20
2018-11-28T11:42:06.162Z,29.67
2018-11-28T11:44:33.342Z,33.00
2018-11-28T11:47:00.575Z,34.70
2018-11-28T11:49:28.137Z,34.00
2018-11-28T11:51:54.941Z,29.30
2018-11-28T11:54:22.149Z,31.10
2018-11-28T11:56:49.325Z,37.10
2018-11-28T11:59:16.562Z,37.33
2018-11-28T12:01:43.730Z,37.23
2018-11-28T12:04:10.939Z,36.53
2018-11-28T12:06:38.106Z,34.03
2018-11-28T12:09:07.352Z,33.53
2018-11-28T12:11:34.562Z,34.33
2018-11-28T12:14:01.950Z,36.83
2018-11-28T12:16:29.125Z,32.00
2018-11-28T12:18:56.334Z,32.40
2018-11-28T12:21:23.593Z,35.80
2018-11-28T12:23:50.815Z,30.53
2018-11-28T12:26:17.984Z,36.13
2018-11-28T12:28:45.169Z,32.63
2018-11-28T12:31:12.380Z,37.10
2018-11-28T12:33:39.561Z,33.47
2018-11-28T12:36:06.806Z,37.20
2018-11-28T12:38:34.198Z,40.97
2018-11-28T12:41:02.366Z,36.97
2018-11-28T12:43:29.772Z,39.47
2018-11-28T12:45:57.053Z,40.77
2018-11-28T12:48:24.677Z,41.27
2018-11-28T12:50:51.913Z,36.43
2018-11-28T12:53:19.264Z,40.63
2018-11-28T12:55:46.486Z,42.23
2018-11-28T12:58:20.820Z,39.77
2018-11-28T13:00:48.021Z,38.63
2018-11-28T13:03:15.859Z,38.93
2018-11-28T13:05:43.069Z,38.80
2018-11-28T13:08:10.244Z,36.50
2018-11-28T13:10:38.091Z,39.27
2018-11-28T13:13:07.162Z,39.77
2018-11-28T13:15:34.824Z,41.87
2018-11-28T13:18:02.550Z,35.93
2018-11-28T13:20:29.720Z,38.57
2018-11-28T13:22:56.893Z,38.07
2018-11-28T13:25:25.458Z,42.10
2018-11-28T13:27:52.692Z,40.30
2018-11-28T13:30:20.413Z,35.53
2018-11-28T13:32:47.885Z,36.87
2018-11-28T13:35:19.495Z,34.67
2018-11-28T13:37:47.084Z,39.00
2018-11-28T13:40:14.732Z,38.77
2018-11-28T13:42:42.117Z,35.77
2018-11-28T13:45:13.889Z,36.93
2018-11-28T13:47:41.461Z,36.70
2018-11-28T13:50:09.201Z,34.67
2018-11-28T13:52:36.416Z,35.90
2018-11-28T13:55:38.580Z,37.63
2018-11-28T13:57:31.409Z,39.00
2018-11-28T13:59:58.582Z,38.63
2018-11-28T14:02:25.785Z,38.13
2018-11-28T14:04:52.948Z,36.33
2018-11-28T14:07:20.153Z,36.77
2018-11-28T14:09:47.321Z,38.30
2018-11-28T14:12:14.518Z,38.87
2018-11-28T14:14:41.688Z,33.83
2018-11-28T14:17:08.898Z,40.87
2018-11-28T14:19:36.073Z,36.73
2018-11-28T14:22:03.277Z,33.80
2018-11-28T14:24:30.448Z,40.53
2018-11-28T14:26:57.653Z,33.20
2018-11-28T14:29:24.842Z,39.30
2018-11-28T14:31:52.190Z,38.43
2018-11-28T14:34:20.508Z,35.00
2018-11-28T14:36:47.689Z,38.43
2018-11-28T14:39:14.981Z,37.67
2018-11-28T14:41:42.183Z,39.33
2018-11-28T14:44:09.382Z,34.67
2018-11-28T14:46:36.573Z,34.53
2018-11-28T14:49:03.783Z,35.97
2018-11-28T14:51:31.028Z,37.83
2018-11-28T14:53:58.229Z,45.20
2018-11-28T14:56:25.401Z,34.50
2018-11-28T14:58:52.614Z,32.60
2018-11-28T15:01:19.789Z,34.97
2018-11-28T15:03:47.186Z,40.33
2018-11-28T15:06:16.097Z,34.37
2018-11-28T15:08:43.275Z,37.13
2018-11-28T15:11:11.936Z,35.43
2018-11-28T15:13:39.480Z,33.63
2018-11-28T15:16:07.046Z,33.63
2018-11-28T15:18:34.256Z,38.10
2018-11-28T15:21:02.280Z,36.97
2018-11-28T15:23:29.489Z,38.87
2018-11-28T15:25:56.676Z,40.57
2018-11-28T15:28:23.866Z,32.27
2018-11-28T15:30:51.056Z,39.30
2018-11-28T15:33:18.263Z,39.07
2018-11-28T15:35:45.462Z,32.23
2018-11-28T15:38:12.665Z,32.50
2018-11-28T15:40:39.847Z,32.77
2018-11-28T15:43:07.064Z,32.20
2018-11-28T15:45:34.274Z,38.43
2018-11-28T15:48:01.444Z,33.37
2018-11-28T15:50:28.659Z,35.43
2018-11-28T15:52:55.853Z,32.23
2018-11-28T15:55:23.077Z,35.17
2018-11-28T15:57:50.300Z,34.37
2018-11-28T16:00:19.277Z,39.50
2018-11-28T16:02:46.509Z,33.43
2018-11-28T16:05:14.632Z,31.70
2018-11-28T16:07:41.850Z,33.70
2018-11-28T16:10:15.269Z,37.47
2018-11-28T16:12:42.798Z,37.60
2018-11-28T16:15:11.206Z,34.10
2018-11-28T16:17:38.403Z,30.57
2018-11-28T16:20:05.765Z,37.90
2018-11-28T16:22:32.992Z,30.90
2018-11-28T16:25:00.180Z,33.37
2018-11-28T16:27:27.401Z,33.17
2018-11-28T16:29:54.570Z,31.20
2018-11-28T16:32:21.741Z,32.10
2018-11-28T16:34:48.960Z,31.93
2018-11-28T16:37:16.142Z,36.40
2018-11-28T16:39:43.365Z,32.30
2018-11-28T16:42:10.545Z,34.40
2018-11-28T16:44:37.745Z,33.60
2018-11-28T16:47:05.111Z,32.13
2018-11-28T16:49:32.301Z,31.40
2018-11-28T16:51:59.504Z,32.37
2018-11-28T16:54:26.679Z,31.63
2018-11-28T16:56:53.853Z,32.97
2018-11-28T16:59:21.064Z,33.50
2018-11-28T17:01:48.224Z,33.63
2018-11-28T17:04:15.408Z,31.00
2018-11-28T17:06:42.602Z,32.00
2018-11-28T17:09:09.989Z,31.93
2018-11-28T17:11:37.195Z,34.90
2018-11-28T17:14:04.510Z,33.33
2018-11-28T17:16:31.744Z,31.93
2018-11-28T17:18:58.924Z,32.20
2018-11-28T17:21:26.121Z,29.90
2018-11-28T17:23:53.298Z,33.10
2018-11-28T17:26:20.504Z,31.60
2018-11-28T17:28:47.676Z,32.00
2018-11-28T17:31:14.943Z,30.13
2018-11-28T17:33:42.097Z,29.10
2018-11-28T17:36:09.296Z,31.87
2018-11-28T17:38:36.468Z,31.43
2018-11-28T17:41:03.649Z,35.50
2018-11-28T17:43:30.856Z,35.77
2018-11-28T17:45:58.062Z,29.17
2018-11-28T17:48:25.326Z,32.67
2018-11-28T17:50:52.496Z,29.07
2018-11-28T17:53:19.692Z,33.33
2018-11-28T17:55:50.509Z,29.80
2018-11-28T17:58:17.730Z,30.15
2018-11-28T18:00:44.916Z,30.87
2018-11-28T18:03:12.083Z,34.60
2018-11-28T18:05:39.327Z,28.80
2018-11-28T18:08:06.533Z,29.63
2018-11-28T18:10:33.773Z,34.30
2018-11-28T18:13:02.656Z,27.93
2018-11-28T18:15:29.860Z,28.50
2018-11-28T18:17:57.234Z,31.23
2018-11-28T18:20:24.450Z,28.90
2018-11-28T18:22:51.633Z,30.33
2018-11-28T18:25:18.844Z,28.30
2018-11-28T18:27:46.048Z,34.87
2018-11-28T18:30:13.325Z,35.50
2018-11-28T18:32:40.543Z,35.83
2018-11-28T18:35:08.418Z,32.53
2018-11-28T18:37:35.607Z,33.57
2018-11-28T18:40:02.868Z,34.07
2018-11-28T18:42:30.098Z,36.77
2018-11-28T18:44:57.343Z,35.47
2018-11-28T18:47:24.546Z,31.17
2018-11-28T18:49:51.728Z,33.27
2018-11-28T18:52:18.941Z,32.33
2018-11-28T18:54:46.132Z,38.93
2018-11-28T18:57:13.334Z,37.10
2018-11-28T18:59:40.508Z,36.00
2018-11-28T19:02:07.744Z,36.20
2018-11-28T19:04:34.945Z,33.43
2018-11-28T19:07:02.134Z,37.63
2018-11-28T19:09:34.765Z,33.03
2018-11-28T19:12:02.329Z,34.40
2018-11-28T19:14:29.499Z,33.93
2018-11-28T19:16:56.696Z,35.77
2018-11-28T19:19:23.890Z,34.63
2018-11-28T19:21:51.073Z,30.63
2018-11-28T19:24:18.257Z,35.93
2018-11-28T19:26:45.466Z,35.80
2018-11-28T19:29:12.640Z,37.30
2018-11-28T19:31:40.027Z,40.37
2018-11-28T19:34:07.225Z,37.57
2018-11-28T19:36:34.573Z,32.90
2018-11-28T19:39:02.557Z,35.20
2018-11-28T19:41:29.740Z,34.97
2018-11-28T19:43:56.926Z,38.40
2018-11-28T19:46:24.141Z,31.60
2018-11-28T19:48:51.357Z,34.67
2018-11-28T19:51:18.536Z,35.00
2018-11-28T19:53:45.704Z,32.63
2018-11-28T19:56:12.903Z,35.63
2018-11-28T19:58:40.070Z,34.70
2018-11-28T20:01:07.277Z,33.50
2018-11-28T20:03:34.440Z,34.70
2018-11-28T20:06:02.117Z,32.90
2018-11-28T20:08:29.284Z,34.83
2018-11-28T20:10:56.478Z,31.87
2018-11-28T20:13:23.662Z,30.50
2018-11-28T20:15:51.314Z,32.13
2018-11-28T20:18:18.477Z,36.67
2018-11-28T20:20:45.682Z,35.53
2018-11-28T20:23:12.918Z,34.77
2018-11-28T20:25:40.085Z,33.23
2018-11-28T20:28:07.868Z,33.33
2018-11-28T20:30:39.752Z,31.53
2018-11-28T20:33:07.333Z,30.80
2018-11-28T20:35:34.537Z,29.97
2018-11-28T20:38:02.269Z,28.20
2018-11-28T20:40:29.440Z,31.90
2018-11-28T20:42:56.634Z,31.47
2018-11-28T20:45:23.845Z,30.00
2018-11-28T20:47:51.060Z,33.00
2018-11-28T20:50:22.145Z,26.97
2018-11-28T20:52:54.901Z,29.27
2018-11-28T20:55:17.445Z,30.90
2018-11-28T20:57:44.653Z,27.37
2018-11-28T21:00:13.743Z,29.93
2018-11-28T21:02:40.941Z,31.03
2018-11-28T21:05:08.161Z,29.33
2018-11-28T21:07:35.368Z,29.97
2018-11-28T21:10:08.813Z,31.33
2018-11-28T21:12:36.053Z,34.97
2018-11-28T21:15:03.272Z,24.47
2018-11-28T21:17:30.477Z,28.73
2018-11-28T21:19:57.648Z,34.03
2018-11-28T21:22:24.846Z,27.80
2018-11-28T21:24:52.053Z,26.97
2018-11-28T21:27:19.244Z,34.57
2018-11-28T21:29:46.414Z,27.90
2018-11-28T21:32:13.626Z,25.70
2018-11-28T21:34:40.801Z,25.30
2018-11-28T21:37:07.980Z,26.37
2018-11-28T21:39:35.168Z,25.53
2018-11-28T21:42:02.872Z,23.20
2018-11-28T21:44:30.072Z,24.20
2018-11-28T21:46:57.236Z,24.40
2018-11-28T21:49:24.468Z,21.40
2018-11-28T21:51:51.635Z,23.70
2018-11-28T21:54:18.810Z,23.93
2018-11-28T21:56:46.000Z,22.67
2018-11-28T21:59:13.187Z,23.80
2018-11-28T22:01:40.388Z,30.47
2018-11-28T22:04:07.569Z,29.80
2018-11-28T22:06:34.776Z,27.07
2018-11-28T22:09:02.517Z,25.50
2018-11-28T22:11:29.720Z,28.40
2018-11-28T22:13:56.928Z,25.40
2018-11-28T22:16:24.125Z,26.87
2018-11-28T22:18:51.554Z,22.90
2018-11-28T22:21:18.841Z,28.33
2018-11-28T22:23:46.022Z,28.60
2018-11-28T22:26:13.223Z,28.00
2018-11-28T22:28:40.388Z,30.53
2018-11-28T22:31:07.593Z,31.80
2018-11-28T22:33:34.792Z,27.20
2018-11-28T22:36:02.380Z,26.97
2018-11-28T22:38:29.557Z,29.20
2018-11-28T22:40:56.749Z,32.50
2018-11-28T22:43:23.922Z,31.23
2018-11-28T22:45:51.113Z,27.73
2018-11-28T22:48:18.281Z,30.90
2018-11-28T22:50:45.512Z,34.10
2018-11-28T22:53:12.699Z,27.70
2018-11-28T22:55:39.889Z,27.97
2018-11-28T22:58:07.080Z,29.73
2018-11-28T23:00:39.945Z,33.53
2018-11-28T23:03:09.267Z,28.93
2018-11-28T23:05:37.785Z,29.13
2018-11-28T23:08:06.721Z,26.80
2018-11-28T23:10:33.909Z,28.07
2018-11-28T23:13:03.027Z,26.00
2018-11-28T23:15:30.228Z,28.93
2018-11-28T23:17:57.408Z,31.20
2018-11-28T23:20:24.610Z,25.37
2018-11-28T23:22:51.800Z,31.40
2018-11-28T23:25:18.977Z,30.17
2018-11-28T23:27:46.272Z,32.20
2018-11-28T23:30:17.041Z,29.63
2018-11-28T23:32:44.381Z,30.83
2018-11-28T23:35:11.991Z,28.60
2018-11-28T23:37:39.656Z,28.07
2018-11-28T23:40:08.094Z,31.03
2018-11-28T23:42:35.326Z,31.20
2018-11-28T23:45:02.667Z,28.03
2018-11-28T23:47:29.868Z,28.20
2018-11-28T23:49:57.078Z,27.87
2018-11-28T23:52:24.257Z,29.00
2018-11-28T23:54:51.429Z,34.33
2018-11-28T23:57:18.657Z,29.40
2018-11-28T23:59:45.873Z,23.60
